PAFA/FAI METAR and TAF weather

Enter ICAO airport designator
Station Type Date Time Source
PAFA METAR 2022/06/25 21:53 UTC NOAA

PAFA 252153Z 00000KT 3SM FU FEW024 BKN030 BKN039 24/07 A3020 RMK AO2 SLP231 T02440067


Station Type Date Time Source
PAFA Decoded METAR 2022/06/25 21:53 UTC NOAA

Fairbanks, Fairbanks International Airport, AK, United States (PAFA) 64-48-14N 147-52-34W 140M
Jun 25, 2022 - 05:53 PM EDT / 2022.06.25 2153 UTC
Wind: Calm:0
Visibility: 3 mile(s):0
Sky conditions: mostly cloudy
Weather: smoke
Temperature: 75.9 F (24.4 C)
Dew Point: 44.1 F (6.7 C)
Relative Humidity: 32%
Pressure (altimeter): 30.2 in. Hg (1022 hPa)
ob: PAFA 252153Z 00000KT 3SM FU FEW024 BKN030 BKN039 24/07 A3020 RMK AO2 SLP231 T02440067
cycle: 22

Station Type Date Time Source
PAFA TAF 2022/06/25 21:39 UTC NOAA

TAF TAF
AMD PAFA 252117Z 2521/2624 VRB03KT 3SM FU FEW024 BKN030 BKN040
FM252300 23004KT 6SM FU FEW025 FEW060 SCT100
FM260600 VRB03KT 1SM FU BKN020 BKN100
FM262000 24004KT 6SM FU FEW020 FEW060 BKN100

Example: see airport list